sensor_id;sensor_type;location;lat;lon;timestamp;P1;durP1;ratioP1;P2;durP2;ratioP2
49416;SDS011;35290;39.550;8.786;2023-07-09T00:01:03;15.05;;;4.82;;
49416;SDS011;35290;39.550;8.786;2023-07-09T00:03:29;20.10;;;4.65;;
49416;SDS011;35290;39.550;8.786;2023-07-09T00:05:54;16.13;;;5.45;;
49416;SDS011;35290;39.550;8.786;2023-07-09T00:08:29;17.80;;;4.90;;
49416;SDS011;35290;39.550;8.786;2023-07-09T00:10:56;17.40;;;4.00;;
49416;SDS011;35290;39.550;8.786;2023-07-09T00:13:22;16.60;;;5.10;;
49416;SDS011;35290;39.550;8.786;2023-07-09T00:15:49;22.63;;;4.88;;
49416;SDS011;35290;39.550;8.786;2023-07-09T00:18:15;17.33;;;5.05;;
49416;SDS011;35290;39.550;8.786;2023-07-09T00:20:41;21.15;;;4.78;;
49416;SDS011;35290;39.550;8.786;2023-07-09T00:23:09;19.70;;;4.65;;
49416;SDS011;35290;39.550;8.786;2023-07-09T00:25:39;23.23;;;4.97;;
49416;SDS011;35290;39.550;8.786;2023-07-09T00:28:17;16.85;;;4.63;;
49416;SDS011;35290;39.550;8.786;2023-07-09T00:30:46;19.00;;;4.30;;
49416;SDS011;35290;39.550;8.786;2023-07-09T00:33:14;12.35;;;4.13;;
49416;SDS011;35290;39.550;8.786;2023-07-09T00:35:43;11.80;;;4.32;;
49416;SDS011;35290;39.550;8.786;2023-07-09T00:38:18;16.15;;;4.05;;
49416;SDS011;35290;39.550;8.786;2023-07-09T00:43:24;23.27;;;6.00;;
49416;SDS011;35290;39.550;8.786;2023-07-09T00:48:48;17.42;;;5.18;;
49416;SDS011;35290;39.550;8.786;2023-07-09T00:51:16;16.85;;;4.80;;
49416;SDS011;35290;39.550;8.786;2023-07-09T00:53:45;17.20;;;4.90;;
49416;SDS011;35290;39.550;8.786;2023-07-09T00:56:12;24.25;;;5.03;;
49416;SDS011;35290;39.550;8.786;2023-07-09T00:58:40;18.45;;;4.30;;
49416;SDS011;35290;39.550;8.786;2023-07-09T01:01:09;19.70;;;4.47;;
49416;SDS011;35290;39.550;8.786;2023-07-09T01:03:41;18.88;;;5.03;;
49416;SDS011;35290;39.550;8.786;2023-07-09T01:06:09;20.83;;;5.30;;
49416;SDS011;35290;39.550;8.786;2023-07-09T01:08:36;35.08;;;6.88;;
49416;SDS011;35290;39.550;8.786;2023-07-09T01:11:03;28.40;;;6.88;;
49416;SDS011;35290;39.550;8.786;2023-07-09T01:13:29;49.03;;;9.27;;
49416;SDS011;35290;39.550;8.786;2023-07-09T01:15:57;45.20;;;10.43;;
49416;SDS011;35290;39.550;8.786;2023-07-09T01:18:23;59.45;;;10.52;;
49416;SDS011;35290;39.550;8.786;2023-07-09T01:20:49;54.47;;;10.43;;
49416;SDS011;35290;39.550;8.786;2023-07-09T01:23:17;72.18;;;11.35;;
49416;SDS011;35290;39.550;8.786;2023-07-09T01:25:45;73.28;;;11.65;;
49416;SDS011;35290;39.550;8.786;2023-07-09T01:28:12;72.43;;;12.60;;
49416;SDS011;35290;39.550;8.786;2023-07-09T01:30:39;70.63;;;11.07;;
49416;SDS011;35290;39.550;8.786;2023-07-09T01:33:05;63.70;;;10.23;;
49416;SDS011;35290;39.550;8.786;2023-07-09T01:35:32;59.65;;;10.15;;
49416;SDS011;35290;39.550;8.786;2023-07-09T01:38:00;58.67;;;9.82;;
49416;SDS011;35290;39.550;8.786;2023-07-09T01:40:26;45.22;;;8.82;;
49416;SDS011;35290;39.550;8.786;2023-07-09T01:42:53;63.72;;;10.20;;
49416;SDS011;35290;39.550;8.786;2023-07-09T01:45:20;60.97;;;10.02;;
49416;SDS011;35290;39.550;8.786;2023-07-09T01:47:46;48.15;;;8.77;;
49416;SDS011;35290;39.550;8.786;2023-07-09T01:50:12;47.10;;;9.57;;
49416;SDS011;35290;39.550;8.786;2023-07-09T01:52:41;49.40;;;9.40;;
49416;SDS011;35290;39.550;8.786;2023-07-09T01:55:11;44.03;;;9.50;;
49416;SDS011;35290;39.550;8.786;2023-07-09T01:57:38;40.92;;;8.57;;
49416;SDS011;35290;39.550;8.786;2023-07-09T02:00:10;40.42;;;8.70;;
49416;SDS011;35290;39.550;8.786;2023-07-09T02:02:39;41.58;;;8.38;;
49416;SDS011;35290;39.550;8.786;2023-07-09T02:05:08;44.47;;;8.77;;
49416;SDS011;35290;39.550;8.786;2023-07-09T02:07:34;43.70;;;8.43;;
49416;SDS011;35290;39.550;8.786;2023-07-09T02:10:00;37.30;;;7.88;;
49416;SDS011;35290;39.550;8.786;2023-07-09T02:12:25;41.00;;;8.00;;
49416;SDS011;35290;39.550;8.786;2023-07-09T02:14:51;39.42;;;8.43;;
49416;SDS011;35290;39.550;8.786;2023-07-09T02:17:16;51.40;;;8.07;;
49416;SDS011;35290;39.550;8.786;2023-07-09T02:19:42;47.47;;;8.60;;
49416;SDS011;35290;39.550;8.786;2023-07-09T02:22:08;36.00;;;7.75;;
49416;SDS011;35290;39.550;8.786;2023-07-09T02:24:34;34.50;;;8.48;;
49416;SDS011;35290;39.550;8.786;2023-07-09T02:27:01;37.60;;;7.97;;
49416;SDS011;35290;39.550;8.786;2023-07-09T02:29:29;36.47;;;8.48;;
49416;SDS011;35290;39.550;8.786;2023-07-09T02:31:56;39.22;;;9.27;;
49416;SDS011;35290;39.550;8.786;2023-07-09T02:34:22;31.83;;;8.32;;
49416;SDS011;35290;39.550;8.786;2023-07-09T02:36:54;39.33;;;8.02;;
49416;SDS011;35290;39.550;8.786;2023-07-09T02:39:20;28.83;;;7.57;;
49416;SDS011;35290;39.550;8.786;2023-07-09T02:41:46;40.53;;;8.93;;
49416;SDS011;35290;39.550;8.786;2023-07-09T02:44:11;32.05;;;8.15;;
49416;SDS011;35290;39.550;8.786;2023-07-09T02:46:38;32.03;;;8.52;;
49416;SDS011;35290;39.550;8.786;2023-07-09T02:49:04;30.00;;;7.90;;
49416;SDS011;35290;39.550;8.786;2023-07-09T02:51:31;34.38;;;7.47;;
49416;SDS011;35290;39.550;8.786;2023-07-09T02:53:57;29.55;;;7.75;;
49416;SDS011;35290;39.550;8.786;2023-07-09T02:56:24;31.40;;;7.88;;
49416;SDS011;35290;39.550;8.786;2023-07-09T02:58:50;29.25;;;7.55;;
49416;SDS011;35290;39.550;8.786;2023-07-09T03:01:16;31.15;;;8.13;;
49416;SDS011;35290;39.550;8.786;2023-07-09T03:03:42;32.90;;;7.10;;
49416;SDS011;35290;39.550;8.786;2023-07-09T03:06:08;32.60;;;7.05;;
49416;SDS011;35290;39.550;8.786;2023-07-09T03:08:34;33.63;;;8.13;;
49416;SDS011;35290;39.550;8.786;2023-07-09T03:10:59;33.92;;;7.55;;
49416;SDS011;35290;39.550;8.786;2023-07-09T03:13:25;32.67;;;7.70;;
49416;SDS011;35290;39.550;8.786;2023-07-09T03:15:54;38.97;;;7.75;;
49416;SDS011;35290;39.550;8.786;2023-07-09T03:18:20;33.15;;;7.65;;
49416;SDS011;35290;39.550;8.786;2023-07-09T03:20:46;33.53;;;8.15;;
49416;SDS011;35290;39.550;8.786;2023-07-09T03:23:12;22.73;;;6.57;;
49416;SDS011;35290;39.550;8.786;2023-07-09T03:25:43;34.38;;;8.45;;
49416;SDS011;35290;39.550;8.786;2023-07-09T03:28:10;25.38;;;7.13;;
49416;SDS011;35290;39.550;8.786;2023-07-09T03:30:43;26.85;;;6.90;;
49416;SDS011;35290;39.550;8.786;2023-07-09T03:33:10;28.27;;;7.63;;
49416;SDS011;35290;39.550;8.786;2023-07-09T03:35:36;35.45;;;7.78;;
49416;SDS011;35290;39.550;8.786;2023-07-09T03:38:03;25.65;;;7.30;;
49416;SDS011;35290;39.550;8.786;2023-07-09T03:40:29;25.13;;;6.75;;
49416;SDS011;35290;39.550;8.786;2023-07-09T03:42:55;32.42;;;6.97;;
49416;SDS011;35290;39.550;8.786;2023-07-09T03:45:20;24.35;;;7.22;;
49416;SDS011;35290;39.550;8.786;2023-07-09T03:47:46;27.13;;;7.32;;
49416;SDS011;35290;39.550;8.786;2023-07-09T03:50:11;26.58;;;7.07;;
49416;SDS011;35290;39.550;8.786;2023-07-09T03:52:37;28.38;;;7.15;;
49416;SDS011;35290;39.550;8.786;2023-07-09T03:55:04;27.92;;;6.78;;
49416;SDS011;35290;39.550;8.786;2023-07-09T03:57:30;25.15;;;7.25;;
49416;SDS011;35290;39.550;8.786;2023-07-09T03:59:56;29.02;;;6.68;;
49416;SDS011;35290;39.550;8.786;2023-07-09T04:02:22;25.88;;;6.90;;
49416;SDS011;35290;39.550;8.786;2023-07-09T04:04:48;24.60;;;6.82;;
49416;SDS011;35290;39.550;8.786;2023-07-09T04:07:14;25.55;;;7.40;;
49416;SDS011;35290;39.550;8.786;2023-07-09T04:09:40;27.92;;;7.50;;
49416;SDS011;35290;39.550;8.786;2023-07-09T04:12:06;26.80;;;7.63;;
49416;SDS011;35290;39.550;8.786;2023-07-09T04:14:32;25.98;;;7.40;;
49416;SDS011;35290;39.550;8.786;2023-07-09T04:16:57;23.08;;;7.18;;
49416;SDS011;35290;39.550;8.786;2023-07-09T04:19:23;25.10;;;6.63;;
49416;SDS011;35290;39.550;8.786;2023-07-09T04:21:48;24.80;;;7.60;;
49416;SDS011;35290;39.550;8.786;2023-07-09T04:24:16;24.52;;;7.25;;
49416;SDS011;35290;39.550;8.786;2023-07-09T04:26:42;22.85;;;7.00;;
49416;SDS011;35290;39.550;8.786;2023-07-09T04:29:08;25.73;;;7.68;;
49416;SDS011;35290;39.550;8.786;2023-07-09T04:31:34;23.75;;;7.50;;
49416;SDS011;35290;39.550;8.786;2023-07-09T04:33:59;33.47;;;7.97;;
49416;SDS011;35290;39.550;8.786;2023-07-09T04:36:25;31.60;;;7.90;;
49416;SDS011;35290;39.550;8.786;2023-07-09T04:38:51;24.83;;;7.40;;
49416;SDS011;35290;39.550;8.786;2023-07-09T04:41:17;34.13;;;8.27;;
49416;SDS011;35290;39.550;8.786;2023-07-09T04:43:43;26.98;;;7.60;;
49416;SDS011;35290;39.550;8.786;2023-07-09T04:46:08;31.95;;;7.82;;
49416;SDS011;35290;39.550;8.786;2023-07-09T04:48:34;26.45;;;8.20;;
49416;SDS011;35290;39.550;8.786;2023-07-09T04:50:59;22.48;;;7.15;;
49416;SDS011;35290;39.550;8.786;2023-07-09T04:53:25;25.27;;;7.35;;
49416;SDS011;35290;39.550;8.786;2023-07-09T04:55:51;27.98;;;7.72;;
49416;SDS011;35290;39.550;8.786;2023-07-09T04:58:17;28.90;;;7.45;;
49416;SDS011;35290;39.550;8.786;2023-07-09T05:00:43;35.50;;;7.90;;
49416;SDS011;35290;39.550;8.786;2023-07-09T05:03:09;26.95;;;7.78;;
49416;SDS011;35290;39.550;8.786;2023-07-09T05:05:35;29.67;;;7.72;;
49416;SDS011;35290;39.550;8.786;2023-07-09T05:08:00;24.85;;;7.75;;
49416;SDS011;35290;39.550;8.786;2023-07-09T05:10:26;34.45;;;8.27;;
49416;SDS011;35290;39.550;8.786;2023-07-09T05:12:52;30.67;;;7.35;;
49416;SDS011;35290;39.550;8.786;2023-07-09T05:15:20;28.13;;;8.45;;
49416;SDS011;35290;39.550;8.786;2023-07-09T05:17:46;30.70;;;7.80;;
49416;SDS011;35290;39.550;8.786;2023-07-09T05:20:12;32.10;;;7.78;;
49416;SDS011;35290;39.550;8.786;2023-07-09T05:22:39;26.17;;;7.47;;
49416;SDS011;35290;39.550;8.786;2023-07-09T05:25:05;31.38;;;7.75;;
49416;SDS011;35290;39.550;8.786;2023-07-09T05:27:30;30.85;;;7.95;;
49416;SDS011;35290;39.550;8.786;2023-07-09T05:29:56;33.83;;;8.20;;
49416;SDS011;35290;39.550;8.786;2023-07-09T05:32:22;29.90;;;7.35;;
49416;SDS011;35290;39.550;8.786;2023-07-09T05:34:47;34.88;;;7.93;;
49416;SDS011;35290;39.550;8.786;2023-07-09T05:37:13;26.08;;;7.43;;
49416;SDS011;35290;39.550;8.786;2023-07-09T05:39:38;23.70;;;7.18;;
49416;SDS011;35290;39.550;8.786;2023-07-09T05:42:04;27.20;;;6.85;;
49416;SDS011;35290;39.550;8.786;2023-07-09T05:44:29;27.20;;;6.78;;
49416;SDS011;35290;39.550;8.786;2023-07-09T05:46:55;27.52;;;6.50;;
49416;SDS011;35290;39.550;8.786;2023-07-09T05:49:20;26.60;;;6.97;;
49416;SDS011;35290;39.550;8.786;2023-07-09T05:51:46;27.67;;;7.03;;
49416;SDS011;35290;39.550;8.786;2023-07-09T05:54:12;23.20;;;6.38;;
49416;SDS011;35290;39.550;8.786;2023-07-09T05:56:37;25.90;;;7.20;;
49416;SDS011;35290;39.550;8.786;2023-07-09T05:59:03;22.65;;;6.97;;
49416;SDS011;35290;39.550;8.786;2023-07-09T06:01:29;24.15;;;6.68;;
49416;SDS011;35290;39.550;8.786;2023-07-09T06:03:55;28.58;;;7.03;;
49416;SDS011;35290;39.550;8.786;2023-07-09T06:06:21;31.15;;;6.63;;
49416;SDS011;35290;39.550;8.786;2023-07-09T06:08:47;24.92;;;6.75;;
49416;SDS011;35290;39.550;8.786;2023-07-09T06:11:13;20.75;;;6.32;;
49416;SDS011;35290;39.550;8.786;2023-07-09T06:13:39;27.58;;;6.38;;
49416;SDS011;35290;39.550;8.786;2023-07-09T06:16:04;24.50;;;6.22;;
49416;SDS011;35290;39.550;8.786;2023-07-09T06:18:30;24.88;;;6.03;;
49416;SDS011;35290;39.550;8.786;2023-07-09T06:20:57;21.27;;;5.53;;
49416;SDS011;35290;39.550;8.786;2023-07-09T06:23:23;25.75;;;5.80;;
49416;SDS011;35290;39.550;8.786;2023-07-09T06:25:49;25.55;;;5.70;;
49416;SDS011;35290;39.550;8.786;2023-07-09T06:28:20;23.55;;;5.65;;
49416;SDS011;35290;39.550;8.786;2023-07-09T06:33:13;22.25;;;5.80;;
49416;SDS011;35290;39.550;8.786;2023-07-09T06:35:45;20.25;;;6.30;;
49416;SDS011;35290;39.550;8.786;2023-07-09T06:38:15;21.13;;;5.78;;
49416;SDS011;35290;39.550;8.786;2023-07-09T06:40:41;22.33;;;5.72;;
49416;SDS011;35290;39.550;8.786;2023-07-09T06:43:07;24.73;;;5.35;;
49416;SDS011;35290;39.550;8.786;2023-07-09T06:45:32;30.45;;;5.60;;
49416;SDS011;35290;39.550;8.786;2023-07-09T06:47:59;25.23;;;5.40;;
49416;SDS011;35290;39.550;8.786;2023-07-09T06:50:24;21.00;;;5.28;;
49416;SDS011;35290;39.550;8.786;2023-07-09T06:52:50;27.88;;;6.00;;
49416;SDS011;35290;39.550;8.786;2023-07-09T06:55:15;20.23;;;5.60;;
49416;SDS011;35290;39.550;8.786;2023-07-09T06:57:42;20.55;;;5.30;;
49416;SDS011;35290;39.550;8.786;2023-07-09T07:00:08;21.35;;;6.30;;
49416;SDS011;35290;39.550;8.786;2023-07-09T07:02:34;25.92;;;5.60;;
49416;SDS011;35290;39.550;8.786;2023-07-09T07:05:00;27.55;;;5.50;;
49416;SDS011;35290;39.550;8.786;2023-07-09T07:07:25;17.25;;;5.05;;
49416;SDS011;35290;39.550;8.786;2023-07-09T07:09:51;23.02;;;5.32;;
49416;SDS011;35290;39.550;8.786;2023-07-09T07:12:29;22.65;;;4.97;;
49416;SDS011;35290;39.550;8.786;2023-07-09T07:15:07;23.65;;;4.95;;
49416;SDS011;35290;39.550;8.786;2023-07-09T07:17:33;18.40;;;5.10;;
49416;SDS011;35290;39.550;8.786;2023-07-09T07:19:58;26.08;;;4.95;;
49416;SDS011;35290;39.550;8.786;2023-07-09T07:22:24;31.30;;;5.68;;
49416;SDS011;35290;39.550;8.786;2023-07-09T07:24:49;22.17;;;5.35;;
49416;SDS011;35290;39.550;8.786;2023-07-09T07:27:15;23.80;;;5.30;;
49416;SDS011;35290;39.550;8.786;2023-07-09T07:29:40;24.10;;;5.03;;
49416;SDS011;35290;39.550;8.786;2023-07-09T07:32:06;27.58;;;5.25;;
49416;SDS011;35290;39.550;8.786;2023-07-09T07:34:32;35.92;;;6.47;;
49416;SDS011;35290;39.550;8.786;2023-07-09T07:36:58;26.38;;;6.00;;
49416;SDS011;35290;39.550;8.786;2023-07-09T07:39:23;32.25;;;5.60;;
49416;SDS011;35290;39.550;8.786;2023-07-09T07:41:49;27.65;;;5.50;;
49416;SDS011;35290;39.550;8.786;2023-07-09T07:44:16;26.17;;;5.30;;
49416;SDS011;35290;39.550;8.786;2023-07-09T07:46:41;25.17;;;5.65;;
49416;SDS011;35290;39.550;8.786;2023-07-09T07:49:07;31.25;;;6.00;;
49416;SDS011;35290;39.550;8.786;2023-07-09T07:51:33;28.88;;;5.75;;
49416;SDS011;35290;39.550;8.786;2023-07-09T07:53:59;33.38;;;6.00;;
49416;SDS011;35290;39.550;8.786;2023-07-09T07:56:24;27.73;;;5.43;;
49416;SDS011;35290;39.550;8.786;2023-07-09T07:58:50;31.40;;;5.72;;
49416;SDS011;35290;39.550;8.786;2023-07-09T08:01:16;29.77;;;5.70;;
49416;SDS011;35290;39.550;8.786;2023-07-09T08:03:49;26.83;;;6.63;;
49416;SDS011;35290;39.550;8.786;2023-07-09T08:06:15;33.35;;;6.47;;
49416;SDS011;35290;39.550;8.786;2023-07-09T08:08:41;31.67;;;6.35;;
49416;SDS011;35290;39.550;8.786;2023-07-09T08:11:07;30.15;;;5.78;;
49416;SDS011;35290;39.550;8.786;2023-07-09T08:13:34;27.48;;;5.97;;
49416;SDS011;35290;39.550;8.786;2023-07-09T08:16:00;32.83;;;5.57;;
49416;SDS011;35290;39.550;8.786;2023-07-09T08:18:25;31.48;;;5.45;;
49416;SDS011;35290;39.550;8.786;2023-07-09T08:20:51;30.45;;;5.95;;
49416;SDS011;35290;39.550;8.786;2023-07-09T08:23:16;24.08;;;5.63;;
49416;SDS011;35290;39.550;8.786;2023-07-09T08:25:42;29.23;;;5.10;;
49416;SDS011;35290;39.550;8.786;2023-07-09T08:28:07;30.70;;;5.97;;
49416;SDS011;35290;39.550;8.786;2023-07-09T08:30:33;30.67;;;5.95;;
49416;SDS011;35290;39.550;8.786;2023-07-09T08:32:59;43.25;;;6.20;;
49416;SDS011;35290;39.550;8.786;2023-07-09T08:35:25;31.20;;;6.75;;
49416;SDS011;35290;39.550;8.786;2023-07-09T08:37:51;38.60;;;6.05;;
49416;SDS011;35290;39.550;8.786;2023-07-09T08:40:17;32.45;;;6.47;;
49416;SDS011;35290;39.550;8.786;2023-07-09T08:42:46;29.67;;;5.50;;
49416;SDS011;35290;39.550;8.786;2023-07-09T08:48:06;30.17;;;5.78;;
49416;SDS011;35290;39.550;8.786;2023-07-09T08:50:45;34.17;;;5.55;;
49416;SDS011;35290;39.550;8.786;2023-07-09T08:53:36;35.40;;;5.80;;
49416;SDS011;35290;39.550;8.786;2023-07-09T08:56:01;32.08;;;5.43;;
49416;SDS011;35290;39.550;8.786;2023-07-09T08:58:28;36.40;;;6.18;;
49416;SDS011;35290;39.550;8.786;2023-07-09T09:00:55;40.95;;;5.43;;
49416;SDS011;35290;39.550;8.786;2023-07-09T09:05:56;41.33;;;6.32;;
49416;SDS011;35290;39.550;8.786;2023-07-09T09:11:11;31.65;;;5.68;;
49416;SDS011;35290;39.550;8.786;2023-07-09T09:13:39;31.75;;;6.00;;
49416;SDS011;35290;39.550;8.786;2023-07-09T09:16:09;44.42;;;6.78;;
49416;SDS011;35290;39.550;8.786;2023-07-09T09:19:00;38.75;;;6.32;;
49416;SDS011;35290;39.550;8.786;2023-07-09T09:21:31;25.40;;;5.88;;
49416;SDS011;35290;39.550;8.786;2023-07-09T09:23:58;33.97;;;5.70;;
49416;SDS011;35290;39.550;8.786;2023-07-09T09:26:35;28.75;;;5.10;;
49416;SDS011;35290;39.550;8.786;2023-07-09T09:29:07;28.40;;;5.18;;
49416;SDS011;35290;39.550;8.786;2023-07-09T09:31:39;26.45;;;6.10;;
49416;SDS011;35290;39.550;8.786;2023-07-09T09:34:05;20.50;;;5.40;;
49416;SDS011;35290;39.550;8.786;2023-07-09T09:36:30;23.13;;;5.45;;
49416;SDS011;35290;39.550;8.786;2023-07-09T09:39:01;29.17;;;6.10;;
49416;SDS011;35290;39.550;8.786;2023-07-09T09:41:30;29.90;;;5.38;;
49416;SDS011;35290;39.550;8.786;2023-07-09T09:43:56;21.98;;;5.15;;
49416;SDS011;35290;39.550;8.786;2023-07-09T09:46:26;22.67;;;4.65;;
49416;SDS011;35290;39.550;8.786;2023-07-09T09:48:56;22.42;;;4.70;;
49416;SDS011;35290;39.550;8.786;2023-07-09T09:51:25;24.55;;;5.20;;
49416;SDS011;35290;39.550;8.786;2023-07-09T09:53:58;25.35;;;5.47;;
49416;SDS011;35290;39.550;8.786;2023-07-09T09:56:27;23.55;;;5.15;;
49416;SDS011;35290;39.550;8.786;2023-07-09T09:58:59;21.90;;;4.78;;
49416;SDS011;35290;39.550;8.786;2023-07-09T10:01:27;23.70;;;5.13;;
49416;SDS011;35290;39.550;8.786;2023-07-09T10:03:58;20.17;;;5.20;;
49416;SDS011;35290;39.550;8.786;2023-07-09T10:06:43;19.85;;;4.90;;
49416;SDS011;35290;39.550;8.786;2023-07-09T10:09:46;27.58;;;5.63;;
49416;SDS011;35290;39.550;8.786;2023-07-09T10:18:15;24.95;;;4.55;;
49416;SDS011;35290;39.550;8.786;2023-07-09T10:20:47;21.50;;;5.07;;
49416;SDS011;35290;39.550;8.786;2023-07-09T10:23:27;23.77;;;5.22;;
49416;SDS011;35290;39.550;8.786;2023-07-09T10:25:59;23.58;;;4.72;;
49416;SDS011;35290;39.550;8.786;2023-07-09T10:39:08;24.10;;;4.72;;
49416;SDS011;35290;39.550;8.786;2023-07-09T10:41:37;27.27;;;4.63;;
49416;SDS011;35290;39.550;8.786;2023-07-09T10:44:16;31.88;;;5.45;;
49416;SDS011;35290;39.550;8.786;2023-07-09T10:46:45;26.10;;;5.47;;
49416;SDS011;35290;39.550;8.786;2023-07-09T10:49:14;24.42;;;4.95;;
49416;SDS011;35290;39.550;8.786;2023-07-09T11:00:17;19.58;;;5.10;;
49416;SDS011;35290;39.550;8.786;2023-07-09T11:02:44;21.83;;;5.15;;
49416;SDS011;35290;39.550;8.786;2023-07-09T11:05:09;18.05;;;4.43;;
49416;SDS011;35290;39.550;8.786;2023-07-09T11:08:02;21.85;;;4.93;;
49416;SDS011;35290;39.550;8.786;2023-07-09T11:10:39;22.25;;;4.82;;
49416;SDS011;35290;39.550;8.786;2023-07-09T11:13:13;21.27;;;4.85;;
49416;SDS011;35290;39.550;8.786;2023-07-09T11:18:12;25.73;;;4.82;;
49416;SDS011;35290;39.550;8.786;2023-07-09T11:20:42;24.07;;;5.30;;
49416;SDS011;35290;39.550;8.786;2023-07-09T11:23:19;24.77;;;4.68;;
49416;SDS011;35290;39.550;8.786;2023-07-09T11:25:48;19.38;;;4.95;;
49416;SDS011;35290;39.550;8.786;2023-07-09T11:28:15;21.17;;;4.65;;
49416;SDS011;35290;39.550;8.786;2023-07-09T11:30:53;15.75;;;4.32;;
49416;SDS011;35290;39.550;8.786;2023-07-09T11:33:20;26.42;;;4.55;;
49416;SDS011;35290;39.550;8.786;2023-07-09T11:35:54;17.17;;;4.45;;
49416;SDS011;35290;39.550;8.786;2023-07-09T11:38:36;18.70;;;4.75;;
49416;SDS011;35290;39.550;8.786;2023-07-09T11:44:21;15.93;;;4.13;;
49416;SDS011;35290;39.550;8.786;2023-07-09T11:47:07;23.73;;;5.00;;
49416;SDS011;35290;39.550;8.786;2023-07-09T11:49:55;18.00;;;4.50;;
49416;SDS011;35290;39.550;8.786;2023-07-09T11:57:53;26.30;;;5.15;;
49416;SDS011;35290;39.550;8.786;2023-07-09T12:00:19;21.88;;;5.22;;
49416;SDS011;35290;39.550;8.786;2023-07-09T12:02:45;27.48;;;5.10;;
49416;SDS011;35290;39.550;8.786;2023-07-09T12:05:11;26.48;;;5.25;;
49416;SDS011;35290;39.550;8.786;2023-07-09T12:07:37;20.48;;;4.78;;
49416;SDS011;35290;39.550;8.786;2023-07-09T12:10:03;22.00;;;4.78;;
49416;SDS011;35290;39.550;8.786;2023-07-09T12:12:41;25.73;;;4.53;;
49416;SDS011;35290;39.550;8.786;2023-07-09T12:15:15;23.50;;;4.78;;
49416;SDS011;35290;39.550;8.786;2023-07-09T12:17:52;26.70;;;4.90;;
49416;SDS011;35290;39.550;8.786;2023-07-09T12:20:22;21.77;;;4.40;;
49416;SDS011;35290;39.550;8.786;2023-07-09T12:22:47;24.90;;;4.63;;
49416;SDS011;35290;39.550;8.786;2023-07-09T12:25:18;23.55;;;4.95;;
49416;SDS011;35290;39.550;8.786;2023-07-09T12:27:45;21.60;;;4.95;;
49416;SDS011;35290;39.550;8.786;2023-07-09T12:30:11;16.63;;;4.35;;
49416;SDS011;35290;39.550;8.786;2023-07-09T12:32:43;26.20;;;5.57;;
49416;SDS011;35290;39.550;8.786;2023-07-09T12:35:12;23.15;;;5.55;;
49416;SDS011;35290;39.550;8.786;2023-07-09T12:37:39;27.13;;;5.07;;
49416;SDS011;35290;39.550;8.786;2023-07-09T12:40:11;20.48;;;4.78;;
49416;SDS011;35290;39.550;8.786;2023-07-09T12:42:38;20.60;;;4.40;;
49416;SDS011;35290;39.550;8.786;2023-07-09T12:45:04;19.48;;;4.65;;
49416;SDS011;35290;39.550;8.786;2023-07-09T12:47:30;19.55;;;4.38;;
49416;SDS011;35290;39.550;8.786;2023-07-09T12:50:03;22.20;;;5.47;;
49416;SDS011;35290;39.550;8.786;2023-07-09T12:52:55;24.05;;;4.55;;
49416;SDS011;35290;39.550;8.786;2023-07-09T12:55:22;18.05;;;4.10;;
49416;SDS011;35290;39.550;8.786;2023-07-09T12:57:50;24.38;;;4.80;;
49416;SDS011;35290;39.550;8.786;2023-07-09T13:00:16;22.25;;;5.15;;
49416;SDS011;35290;39.550;8.786;2023-07-09T13:02:43;26.42;;;4.55;;
49416;SDS011;35290;39.550;8.786;2023-07-09T13:05:19;18.75;;;4.25;;
49416;SDS011;35290;39.550;8.786;2023-07-09T13:08:11;19.50;;;5.50;;
49416;SDS011;35290;39.550;8.786;2023-07-09T13:10:40;26.00;;;4.60;;
49416;SDS011;35290;39.550;8.786;2023-07-09T13:13:10;22.70;;;4.57;;
49416;SDS011;35290;39.550;8.786;2023-07-09T13:15:40;25.20;;;5.68;;
49416;SDS011;35290;39.550;8.786;2023-07-09T13:18:09;18.08;;;4.45;;
49416;SDS011;35290;39.550;8.786;2023-07-09T13:20:38;22.75;;;4.30;;
49416;SDS011;35290;39.550;8.786;2023-07-09T13:25:42;20.65;;;4.40;;
49416;SDS011;35290;39.550;8.786;2023-07-09T13:28:29;21.35;;;4.50;;
49416;SDS011;35290;39.550;8.786;2023-07-09T13:31:08;16.25;;;4.43;;
49416;SDS011;35290;39.550;8.786;2023-07-09T13:33:36;19.98;;;4.63;;
49416;SDS011;35290;39.550;8.786;2023-07-09T13:36:02;20.40;;;4.18;;
49416;SDS011;35290;39.550;8.786;2023-07-09T13:38:31;16.73;;;4.60;;
49416;SDS011;35290;39.550;8.786;2023-07-09T13:40:57;26.25;;;5.32;;
49416;SDS011;35290;39.550;8.786;2023-07-09T13:43:30;18.60;;;4.78;;
49416;SDS011;35290;39.550;8.786;2023-07-09T13:45:58;19.52;;;4.38;;
49416;SDS011;35290;39.550;8.786;2023-07-09T13:48:25;16.88;;;4.60;;
49416;SDS011;35290;39.550;8.786;2023-07-09T13:50:51;21.50;;;4.72;;
49416;SDS011;35290;39.550;8.786;2023-07-09T13:53:23;25.50;;;4.93;;
49416;SDS011;35290;39.550;8.786;2023-07-09T13:55:50;15.75;;;4.78;;
49416;SDS011;35290;39.550;8.786;2023-07-09T13:58:17;16.15;;;4.35;;
49416;SDS011;35290;39.550;8.786;2023-07-09T14:00:44;18.00;;;4.93;;
49416;SDS011;35290;39.550;8.786;2023-07-09T14:03:23;14.48;;;4.05;;
49416;SDS011;35290;39.550;8.786;2023-07-09T14:05:53;23.55;;;5.25;;
49416;SDS011;35290;39.550;8.786;2023-07-09T14:08:20;19.15;;;4.50;;
49416;SDS011;35290;39.550;8.786;2023-07-09T14:10:46;19.20;;;4.57;;
49416;SDS011;35290;39.550;8.786;2023-07-09T14:13:16;22.50;;;5.38;;
49416;SDS011;35290;39.550;8.786;2023-07-09T14:15:43;18.65;;;5.10;;
49416;SDS011;35290;39.550;8.786;2023-07-09T14:18:12;19.17;;;4.60;;
49416;SDS011;35290;39.550;8.786;2023-07-09T14:20:39;19.20;;;4.78;;
49416;SDS011;35290;39.550;8.786;2023-07-09T14:23:05;20.10;;;4.97;;
49416;SDS011;35290;39.550;8.786;2023-07-09T14:25:30;24.92;;;5.10;;
49416;SDS011;35290;39.550;8.786;2023-07-09T14:27:56;22.50;;;4.53;;
49416;SDS011;35290;39.550;8.786;2023-07-09T14:30:23;20.35;;;4.80;;
49416;SDS011;35290;39.550;8.786;2023-07-09T14:32:49;19.17;;;4.80;;
49416;SDS011;35290;39.550;8.786;2023-07-09T14:37:41;20.30;;;4.97;;
49416;SDS011;35290;39.550;8.786;2023-07-09T14:40:07;24.63;;;4.65;;
49416;SDS011;35290;39.550;8.786;2023-07-09T14:42:34;21.48;;;5.07;;
49416;SDS011;35290;39.550;8.786;2023-07-09T14:45:01;26.63;;;5.95;;
49416;SDS011;35290;39.550;8.786;2023-07-09T14:47:28;23.67;;;4.82;;
49416;SDS011;35290;39.550;8.786;2023-07-09T14:49:54;18.90;;;4.63;;
49416;SDS011;35290;39.550;8.786;2023-07-09T14:52:20;19.92;;;5.40;;
49416;SDS011;35290;39.550;8.786;2023-07-09T14:54:48;19.52;;;4.70;;
49416;SDS011;35290;39.550;8.786;2023-07-09T14:57:25;16.85;;;4.90;;
49416;SDS011;35290;39.550;8.786;2023-07-09T14:59:51;23.52;;;4.55;;
49416;SDS011;35290;39.550;8.786;2023-07-09T15:04:46;21.27;;;5.13;;
49416;SDS011;35290;39.550;8.786;2023-07-09T15:07:11;19.75;;;5.88;;
49416;SDS011;35290;39.550;8.786;2023-07-09T15:09:38;15.93;;;4.43;;
49416;SDS011;35290;39.550;8.786;2023-07-09T15:12:03;19.40;;;5.38;;
49416;SDS011;35290;39.550;8.786;2023-07-09T15:14:29;24.40;;;5.63;;
49416;SDS011;35290;39.550;8.786;2023-07-09T15:16:55;18.73;;;4.38;;
49416;SDS011;35290;39.550;8.786;2023-07-09T15:19:21;19.63;;;4.95;;
49416;SDS011;35290;39.550;8.786;2023-07-09T15:21:47;17.48;;;5.00;;
49416;SDS011;35290;39.550;8.786;2023-07-09T15:24:18;19.42;;;4.10;;
49416;SDS011;35290;39.550;8.786;2023-07-09T15:27:13;21.23;;;4.40;;
49416;SDS011;35290;39.550;8.786;2023-07-09T15:29:39;19.15;;;4.43;;
49416;SDS011;35290;39.550;8.786;2023-07-09T15:32:04;16.85;;;4.32;;
49416;SDS011;35290;39.550;8.786;2023-07-09T15:34:30;19.30;;;5.18;;
49416;SDS011;35290;39.550;8.786;2023-07-09T15:36:56;22.80;;;4.85;;
49416;SDS011;35290;39.550;8.786;2023-07-09T15:39:21;23.05;;;5.20;;